sensor_id;sensor_type;location;lat;lon;timestamp;P1;durP1;ratioP1;P2;durP2;ratioP2
45198;SDS011;30941;46.422;18.772;2022-07-29T00:01:18;5.72;;;3.40;;
45198;SDS011;30941;46.422;18.772;2022-07-29T00:03:44;5.88;;;3.95;;
45198;SDS011;30941;46.422;18.772;2022-07-29T00:06:09;5.95;;;3.67;;
45198;SDS011;30941;46.422;18.772;2022-07-29T00:08:35;4.72;;;3.65;;
45198;SDS011;30941;46.422;18.772;2022-07-29T00:11:00;7.18;;;3.72;;
45198;SDS011;30941;46.422;18.772;2022-07-29T00:13:25;5.03;;;3.67;;
45198;SDS011;30941;46.422;18.772;2022-07-29T00:15:51;6.78;;;3.60;;
45198;SDS011;30941;46.422;18.772;2022-07-29T00:18:16;6.88;;;3.70;;
45198;SDS011;30941;46.422;18.772;2022-07-29T00:20:42;11.23;;;4.55;;
45198;SDS011;30941;46.422;18.772;2022-07-29T00:23:07;4.70;;;3.88;;
45198;SDS011;30941;46.422;18.772;2022-07-29T00:25:33;5.90;;;3.60;;
45198;SDS011;30941;46.422;18.772;2022-07-29T00:27:58;4.68;;;3.95;;
45198;SDS011;30941;46.422;18.772;2022-07-29T00:30:23;4.63;;;3.78;;
45198;SDS011;30941;46.422;18.772;2022-07-29T00:32:49;7.57;;;3.78;;
45198;SDS011;30941;46.422;18.772;2022-07-29T00:35:14;4.75;;;3.53;;
45198;SDS011;30941;46.422;18.772;2022-07-29T00:37:58;6.53;;;4.38;;
45198;SDS011;30941;46.422;18.772;2022-07-29T00:40:24;8.75;;;3.90;;
45198;SDS011;30941;46.422;18.772;2022-07-29T00:42:50;5.25;;;3.95;;
45198;SDS011;30941;46.422;18.772;2022-07-29T00:45:16;8.20;;;4.00;;
45198;SDS011;30941;46.422;18.772;2022-07-29T00:47:42;6.72;;;3.92;;
45198;SDS011;30941;46.422;18.772;2022-07-29T00:50:09;5.40;;;3.60;;
45198;SDS011;30941;46.422;18.772;2022-07-29T00:52:36;20.55;;;4.82;;
45198;SDS011;30941;46.422;18.772;2022-07-29T00:55:03;5.65;;;3.92;;
45198;SDS011;30941;46.422;18.772;2022-07-29T00:57:30;6.38;;;4.47;;
45198;SDS011;30941;46.422;18.772;2022-07-29T00:59:55;10.77;;;4.25;;
45198;SDS011;30941;46.422;18.772;2022-07-29T01:02:21;5.75;;;3.90;;
45198;SDS011;30941;46.422;18.772;2022-07-29T01:04:46;5.63;;;3.70;;
45198;SDS011;30941;46.422;18.772;2022-07-29T01:07:12;5.28;;;4.00;;
45198;SDS011;30941;46.422;18.772;2022-07-29T01:09:37;9.85;;;4.28;;
45198;SDS011;30941;46.422;18.772;2022-07-29T01:12:04;5.78;;;3.60;;
45198;SDS011;30941;46.422;18.772;2022-07-29T01:14:30;5.97;;;4.32;;
45198;SDS011;30941;46.422;18.772;2022-07-29T01:17:00;9.52;;;3.90;;
45198;SDS011;30941;46.422;18.772;2022-07-29T01:22:53;9.53;;;4.20;;
45198;SDS011;30941;46.422;18.772;2022-07-29T01:31:10;5.83;;;4.13;;
45198;SDS011;30941;46.422;18.772;2022-07-29T01:33:38;7.45;;;4.22;;
45198;SDS011;30941;46.422;18.772;2022-07-29T01:36:32;7.15;;;3.75;;
45198;SDS011;30941;46.422;18.772;2022-07-29T01:39:19;6.90;;;4.45;;
45198;SDS011;30941;46.422;18.772;2022-07-29T01:41:55;6.57;;;4.30;;
45198;SDS011;30941;46.422;18.772;2022-07-29T01:44:30;7.53;;;3.95;;
45198;SDS011;30941;46.422;18.772;2022-07-29T01:46:58;5.55;;;4.00;;
45198;SDS011;30941;46.422;18.772;2022-07-29T01:49:28;5.90;;;4.15;;
45198;SDS011;30941;46.422;18.772;2022-07-29T01:51:58;8.15;;;4.20;;
45198;SDS011;30941;46.422;18.772;2022-07-29T01:54:43;4.30;;;3.42;;
45198;SDS011;30941;46.422;18.772;2022-07-29T01:57:13;10.10;;;5.28;;
45198;SDS011;30941;46.422;18.772;2022-07-29T01:59:40;7.38;;;4.20;;
45198;SDS011;30941;46.422;18.772;2022-07-29T02:02:07;7.30;;;4.70;;
45198;SDS011;30941;46.422;18.772;2022-07-29T02:04:33;11.07;;;3.95;;
45198;SDS011;30941;46.422;18.772;2022-07-29T02:07:02;6.43;;;4.15;;
45198;SDS011;30941;46.422;18.772;2022-07-29T02:09:30;6.30;;;4.13;;
45198;SDS011;30941;46.422;18.772;2022-07-29T02:11:57;5.53;;;3.97;;
45198;SDS011;30941;46.422;18.772;2022-07-29T02:14:24;6.65;;;4.20;;
45198;SDS011;30941;46.422;18.772;2022-07-29T02:16:52;6.22;;;4.00;;
45198;SDS011;30941;46.422;18.772;2022-07-29T02:19:19;6.80;;;4.63;;
45198;SDS011;30941;46.422;18.772;2022-07-29T02:21:47;10.10;;;3.53;;
45198;SDS011;30941;46.422;18.772;2022-07-29T02:24:13;7.80;;;4.32;;
45198;SDS011;30941;46.422;18.772;2022-07-29T02:26:40;7.78;;;4.78;;
45198;SDS011;30941;46.422;18.772;2022-07-29T02:29:06;6.30;;;3.85;;
45198;SDS011;30941;46.422;18.772;2022-07-29T02:31:34;9.00;;;4.20;;
45198;SDS011;30941;46.422;18.772;2022-07-29T02:34:05;6.20;;;3.83;;
45198;SDS011;30941;46.422;18.772;2022-07-29T02:36:32;5.55;;;4.38;;
45198;SDS011;30941;46.422;18.772;2022-07-29T02:38:58;7.53;;;4.00;;
45198;SDS011;30941;46.422;18.772;2022-07-29T02:44:01;7.35;;;4.50;;
45198;SDS011;30941;46.422;18.772;2022-07-29T02:46:32;7.95;;;4.60;;
45198;SDS011;30941;46.422;18.772;2022-07-29T02:49:09;6.47;;;4.40;;
45198;SDS011;30941;46.422;18.772;2022-07-29T02:54:20;7.03;;;4.57;;
45198;SDS011;30941;46.422;18.772;2022-07-29T02:56:51;8.27;;;4.40;;
45198;SDS011;30941;46.422;18.772;2022-07-29T02:59:22;7.70;;;5.15;;
45198;SDS011;30941;46.422;18.772;2022-07-29T03:01:48;12.95;;;5.22;;
45198;SDS011;30941;46.422;18.772;2022-07-29T03:04:14;6.70;;;4.63;;
45198;SDS011;30941;46.422;18.772;2022-07-29T03:06:40;7.07;;;4.88;;
45198;SDS011;30941;46.422;18.772;2022-07-29T03:09:07;8.25;;;4.47;;
45198;SDS011;30941;46.422;18.772;2022-07-29T03:11:32;6.15;;;4.40;;
45198;SDS011;30941;46.422;18.772;2022-07-29T03:13:59;7.15;;;4.65;;
45198;SDS011;30941;46.422;18.772;2022-07-29T03:16:25;6.32;;;4.28;;
45198;SDS011;30941;46.422;18.772;2022-07-29T03:18:50;6.43;;;4.65;;
45198;SDS011;30941;46.422;18.772;2022-07-29T03:21:16;6.18;;;4.90;;
45198;SDS011;30941;46.422;18.772;2022-07-29T03:23:45;6.60;;;4.65;;
45198;SDS011;30941;46.422;18.772;2022-07-29T03:26:10;8.73;;;4.68;;
45198;SDS011;30941;46.422;18.772;2022-07-29T03:28:36;5.65;;;4.45;;
45198;SDS011;30941;46.422;18.772;2022-07-29T03:31:01;7.72;;;4.55;;
45198;SDS011;30941;46.422;18.772;2022-07-29T03:33:27;9.50;;;4.93;;
45198;SDS011;30941;46.422;18.772;2022-07-29T03:35:54;8.45;;;5.38;;
45198;SDS011;30941;46.422;18.772;2022-07-29T03:38:19;5.35;;;4.55;;
45198;SDS011;30941;46.422;18.772;2022-07-29T03:40:49;7.13;;;4.80;;
45198;SDS011;30941;46.422;18.772;2022-07-29T03:43:18;5.22;;;4.50;;
45198;SDS011;30941;46.422;18.772;2022-07-29T03:45:45;8.50;;;5.28;;
45198;SDS011;30941;46.422;18.772;2022-07-29T03:48:14;10.25;;;4.70;;
45198;SDS011;30941;46.422;18.772;2022-07-29T03:50:41;10.55;;;5.38;;
45198;SDS011;30941;46.422;18.772;2022-07-29T03:53:06;10.55;;;4.97;;
45198;SDS011;30941;46.422;18.772;2022-07-29T03:55:35;10.05;;;5.32;;
45198;SDS011;30941;46.422;18.772;2022-07-29T03:58:02;7.13;;;5.15;;
45198;SDS011;30941;46.422;18.772;2022-07-29T04:00:28;7.70;;;4.93;;
45198;SDS011;30941;46.422;18.772;2022-07-29T04:02:54;5.90;;;4.45;;
45198;SDS011;30941;46.422;18.772;2022-07-29T04:05:19;6.28;;;4.78;;
45198;SDS011;30941;46.422;18.772;2022-07-29T04:07:45;7.78;;;5.43;;
45198;SDS011;30941;46.422;18.772;2022-07-29T04:10:11;12.18;;;5.47;;
45198;SDS011;30941;46.422;18.772;2022-07-29T04:12:37;8.68;;;5.28;;
45198;SDS011;30941;46.422;18.772;2022-07-29T04:15:03;7.82;;;5.25;;
45198;SDS011;30941;46.422;18.772;2022-07-29T04:17:29;8.35;;;5.55;;
45198;SDS011;30941;46.422;18.772;2022-07-29T04:19:54;10.15;;;5.55;;
45198;SDS011;30941;46.422;18.772;2022-07-29T04:22:20;9.05;;;5.93;;
45198;SDS011;30941;46.422;18.772;2022-07-29T04:24:45;6.28;;;5.30;;
45198;SDS011;30941;46.422;18.772;2022-07-29T04:27:11;8.50;;;5.35;;
45198;SDS011;30941;46.422;18.772;2022-07-29T04:29:36;12.57;;;5.55;;
45198;SDS011;30941;46.422;18.772;2022-07-29T04:32:01;7.18;;;5.03;;
45198;SDS011;30941;46.422;18.772;2022-07-29T04:34:27;13.57;;;4.93;;
45198;SDS011;30941;46.422;18.772;2022-07-29T04:36:52;6.13;;;4.75;;
45198;SDS011;30941;46.422;18.772;2022-07-29T04:39:18;8.43;;;5.22;;
45198;SDS011;30941;46.422;18.772;2022-07-29T04:41:43;6.88;;;5.10;;
45198;SDS011;30941;46.422;18.772;2022-07-29T04:44:09;7.35;;;4.97;;
45198;SDS011;30941;46.422;18.772;2022-07-29T04:46:34;9.82;;;5.22;;
45198;SDS011;30941;46.422;18.772;2022-07-29T04:49:00;9.10;;;5.40;;
45198;SDS011;30941;46.422;18.772;2022-07-29T04:51:27;13.43;;;5.25;;
45198;SDS011;30941;46.422;18.772;2022-07-29T04:53:52;9.95;;;4.55;;
45198;SDS011;30941;46.422;18.772;2022-07-29T04:56:18;8.75;;;5.45;;
45198;SDS011;30941;46.422;18.772;2022-07-29T04:58:43;11.85;;;6.20;;
45198;SDS011;30941;46.422;18.772;2022-07-29T05:01:09;8.90;;;5.28;;
45198;SDS011;30941;46.422;18.772;2022-07-29T05:03:34;13.27;;;5.13;;
45198;SDS011;30941;46.422;18.772;2022-07-29T05:05:59;7.63;;;5.43;;
45198;SDS011;30941;46.422;18.772;2022-07-29T05:08:25;9.23;;;5.03;;
45198;SDS011;30941;46.422;18.772;2022-07-29T05:10:50;7.63;;;5.03;;
45198;SDS011;30941;46.422;18.772;2022-07-29T05:13:16;8.32;;;5.22;;
45198;SDS011;30941;46.422;18.772;2022-07-29T05:15:41;11.52;;;5.78;;
45198;SDS011;30941;46.422;18.772;2022-07-29T05:18:07;12.15;;;5.07;;
45198;SDS011;30941;46.422;18.772;2022-07-29T05:20:32;7.65;;;4.72;;
45198;SDS011;30941;46.422;18.772;2022-07-29T05:22:59;10.65;;;5.22;;
45198;SDS011;30941;46.422;18.772;2022-07-29T05:25:26;6.88;;;5.07;;
45198;SDS011;30941;46.422;18.772;2022-07-29T05:27:52;11.40;;;4.75;;
45198;SDS011;30941;46.422;18.772;2022-07-29T05:30:17;6.95;;;4.25;;
45198;SDS011;30941;46.422;18.772;2022-07-29T05:32:43;9.27;;;5.13;;
45198;SDS011;30941;46.422;18.772;2022-07-29T05:35:09;9.35;;;5.05;;
45198;SDS011;30941;46.422;18.772;2022-07-29T05:37:34;13.77;;;5.30;;
45198;SDS011;30941;46.422;18.772;2022-07-29T05:40:00;6.10;;;4.65;;
45198;SDS011;30941;46.422;18.772;2022-07-29T05:42:26;8.68;;;5.20;;
45198;SDS011;30941;46.422;18.772;2022-07-29T05:44:52;9.88;;;5.13;;
45198;SDS011;30941;46.422;18.772;2022-07-29T05:47:18;6.60;;;5.03;;
45198;SDS011;30941;46.422;18.772;2022-07-29T05:49:43;6.88;;;4.78;;
45198;SDS011;30941;46.422;18.772;2022-07-29T05:52:09;10.38;;;4.50;;
45198;SDS011;30941;46.422;18.772;2022-07-29T05:54:34;7.53;;;4.45;;
45198;SDS011;30941;46.422;18.772;2022-07-29T05:57:00;6.30;;;4.47;;
45198;SDS011;30941;46.422;18.772;2022-07-29T05:59:26;7.75;;;4.68;;
45198;SDS011;30941;46.422;18.772;2022-07-29T06:01:51;7.97;;;5.05;;
45198;SDS011;30941;46.422;18.772;2022-07-29T06:04:17;6.72;;;4.97;;
45198;SDS011;30941;46.422;18.772;2022-07-29T06:06:42;8.32;;;5.00;;
45198;SDS011;30941;46.422;18.772;2022-07-29T06:09:07;8.77;;;5.00;;
45198;SDS011;30941;46.422;18.772;2022-07-29T06:11:33;9.85;;;4.88;;
45198;SDS011;30941;46.422;18.772;2022-07-29T06:13:58;8.18;;;4.90;;
45198;SDS011;30941;46.422;18.772;2022-07-29T06:16:24;7.20;;;4.60;;
45198;SDS011;30941;46.422;18.772;2022-07-29T06:18:49;7.10;;;4.93;;
45198;SDS011;30941;46.422;18.772;2022-07-29T06:21:15;16.35;;;5.65;;
45198;SDS011;30941;46.422;18.772;2022-07-29T06:23:40;7.65;;;5.28;;
45198;SDS011;30941;46.422;18.772;2022-07-29T06:26:06;10.98;;;5.03;;
45198;SDS011;30941;46.422;18.772;2022-07-29T06:28:31;7.40;;;5.38;;
45198;SDS011;30941;46.422;18.772;2022-07-29T06:30:58;13.50;;;5.05;;
45198;SDS011;30941;46.422;18.772;2022-07-29T06:33:23;9.70;;;5.70;;
45198;SDS011;30941;46.422;18.772;2022-07-29T06:35:49;7.88;;;4.95;;
45198;SDS011;30941;46.422;18.772;2022-07-29T06:38:15;10.00;;;4.45;;
45198;SDS011;30941;46.422;18.772;2022-07-29T06:40:41;6.95;;;4.88;;
45198;SDS011;30941;46.422;18.772;2022-07-29T06:43:36;9.18;;;4.50;;
45198;SDS011;30941;46.422;18.772;2022-07-29T06:46:04;11.85;;;4.80;;
45198;SDS011;30941;46.422;18.772;2022-07-29T06:48:32;7.93;;;4.30;;
45198;SDS011;30941;46.422;18.772;2022-07-29T06:50:58;5.60;;;4.38;;
45198;SDS011;30941;46.422;18.772;2022-07-29T06:53:24;11.18;;;4.88;;
45198;SDS011;30941;46.422;18.772;2022-07-29T06:55:51;5.68;;;3.92;;
45198;SDS011;30941;46.422;18.772;2022-07-29T06:58:17;7.15;;;4.53;;
45198;SDS011;30941;46.422;18.772;2022-07-29T07:00:45;8.60;;;4.28;;
45198;SDS011;30941;46.422;18.772;2022-07-29T07:03:11;8.40;;;4.43;;
45198;SDS011;30941;46.422;18.772;2022-07-29T07:05:37;6.35;;;4.63;;
45198;SDS011;30941;46.422;18.772;2022-07-29T07:08:02;6.57;;;4.00;;
45198;SDS011;30941;46.422;18.772;2022-07-29T07:10:28;7.20;;;4.90;;
45198;SDS011;30941;46.422;18.772;2022-07-29T07:12:54;6.22;;;4.45;;
45198;SDS011;30941;46.422;18.772;2022-07-29T07:15:19;8.23;;;4.22;;
45198;SDS011;30941;46.422;18.772;2022-07-29T07:17:47;4.75;;;3.80;;
45198;SDS011;30941;46.422;18.772;2022-07-29T07:20:13;5.20;;;4.20;;
45198;SDS011;30941;46.422;18.772;2022-07-29T07:22:39;6.63;;;4.30;;
45198;SDS011;30941;46.422;18.772;2022-07-29T07:25:05;8.02;;;4.30;;
45198;SDS011;30941;46.422;18.772;2022-07-29T07:27:31;4.80;;;4.30;;
45198;SDS011;30941;46.422;18.772;2022-07-29T07:29:56;8.55;;;4.10;;
45198;SDS011;30941;46.422;18.772;2022-07-29T07:32:22;5.95;;;4.30;;
45198;SDS011;30941;46.422;18.772;2022-07-29T07:34:47;5.60;;;3.83;;
45198;SDS011;30941;46.422;18.772;2022-07-29T07:37:13;6.43;;;4.45;;
45198;SDS011;30941;46.422;18.772;2022-07-29T07:39:39;5.70;;;4.25;;
45198;SDS011;30941;46.422;18.772;2022-07-29T07:42:05;4.68;;;3.90;;
45198;SDS011;30941;46.422;18.772;2022-07-29T07:44:31;5.22;;;3.72;;
45198;SDS011;30941;46.422;18.772;2022-07-29T07:46:56;6.53;;;3.95;;
45198;SDS011;30941;46.422;18.772;2022-07-29T07:49:22;6.40;;;3.97;;
45198;SDS011;30941;46.422;18.772;2022-07-29T07:51:47;5.13;;;4.18;;
45198;SDS011;30941;46.422;18.772;2022-07-29T07:54:12;8.18;;;4.43;;
45198;SDS011;30941;46.422;18.772;2022-07-29T07:56:38;4.82;;;4.00;;
45198;SDS011;30941;46.422;18.772;2022-07-29T07:59:03;6.03;;;4.35;;
45198;SDS011;30941;46.422;18.772;2022-07-29T08:01:29;5.47;;;4.20;;
45198;SDS011;30941;46.422;18.772;2022-07-29T08:03:54;5.85;;;4.30;;
45198;SDS011;30941;46.422;18.772;2022-07-29T08:06:20;5.68;;;4.40;;
45198;SDS011;30941;46.422;18.772;2022-07-29T08:08:45;7.32;;;4.07;;
45198;SDS011;30941;46.422;18.772;2022-07-29T08:11:11;7.25;;;4.30;;
45198;SDS011;30941;46.422;18.772;2022-07-29T08:13:37;7.03;;;3.90;;
45198;SDS011;30941;46.422;18.772;2022-07-29T08:16:03;9.30;;;4.25;;
45198;SDS011;30941;46.422;18.772;2022-07-29T08:18:38;5.82;;;3.78;;
45198;SDS011;30941;46.422;18.772;2022-07-29T08:21:04;6.90;;;4.25;;
45198;SDS011;30941;46.422;18.772;2022-07-29T08:23:30;6.13;;;4.30;;
45198;SDS011;30941;46.422;18.772;2022-07-29T08:26:11;6.97;;;4.30;;
45198;SDS011;30941;46.422;18.772;2022-07-29T08:28:37;5.55;;;3.60;;
45198;SDS011;30941;46.422;18.772;2022-07-29T08:31:03;5.80;;;3.85;;
45198;SDS011;30941;46.422;18.772;2022-07-29T08:33:29;4.63;;;3.65;;
45198;SDS011;30941;46.422;18.772;2022-07-29T08:35:55;7.15;;;3.97;;
45198;SDS011;30941;46.422;18.772;2022-07-29T08:38:20;4.50;;;3.83;;
45198;SDS011;30941;46.422;18.772;2022-07-29T08:40:45;4.50;;;3.65;;
45198;SDS011;30941;46.422;18.772;2022-07-29T08:43:11;5.57;;;3.42;;
45198;SDS011;30941;46.422;18.772;2022-07-29T08:45:44;5.97;;;3.35;;
45198;SDS011;30941;46.422;18.772;2022-07-29T08:48:13;4.68;;;3.25;;
45198;SDS011;30941;46.422;18.772;2022-07-29T08:50:43;4.05;;;3.45;;
45198;SDS011;30941;46.422;18.772;2022-07-29T08:53:10;4.22;;;3.10;;
45198;SDS011;30941;46.422;18.772;2022-07-29T08:55:41;5.43;;;3.35;;
45198;SDS011;30941;46.422;18.772;2022-07-29T08:58:08;4.03;;;3.30;;
45198;SDS011;30941;46.422;18.772;2022-07-29T09:00:35;5.05;;;3.42;;
45198;SDS011;30941;46.422;18.772;2022-07-29T09:03:01;4.07;;;3.10;;
45198;SDS011;30941;46.422;18.772;2022-07-29T09:05:29;4.13;;;3.10;;
45198;SDS011;30941;46.422;18.772;2022-07-29T09:07:55;4.32;;;3.22;;
45198;SDS011;30941;46.422;18.772;2022-07-29T09:10:20;15.02;;;3.65;;
45198;SDS011;30941;46.422;18.772;2022-07-29T09:12:46;5.97;;;3.40;;
45198;SDS011;30941;46.422;18.772;2022-07-29T09:15:12;3.60;;;3.30;;
45198;SDS011;30941;46.422;18.772;2022-07-29T09:17:41;4.15;;;3.55;;
45198;SDS011;30941;46.422;18.772;2022-07-29T09:20:17;6.00;;;3.15;;
45198;SDS011;30941;46.422;18.772;2022-07-29T09:22:44;5.90;;;3.33;;
45198;SDS011;30941;46.422;18.772;2022-07-29T09:25:15;5.35;;;3.40;;
45198;SDS011;30941;46.422;18.772;2022-07-29T09:28:04;4.82;;;2.95;;
45198;SDS011;30941;46.422;18.772;2022-07-29T09:30:31;5.43;;;3.40;;
45198;SDS011;30941;46.422;18.772;2022-07-29T09:32:57;3.85;;;3.33;;
45198;SDS011;30941;46.422;18.772;2022-07-29T09:35:26;5.35;;;3.60;;
45198;SDS011;30941;46.422;18.772;2022-07-29T09:37:52;4.22;;;3.35;;
45198;SDS011;30941;46.422;18.772;2022-07-29T09:40:18;5.07;;;3.25;;
45198;SDS011;30941;46.422;18.772;2022-07-29T09:42:46;4.78;;;3.60;;
45198;SDS011;30941;46.422;18.772;2022-07-29T09:45:13;6.60;;;3.50;;
45198;SDS011;30941;46.422;18.772;2022-07-29T09:47:51;5.25;;;2.88;;
45198;SDS011;30941;46.422;18.772;2022-07-29T09:50:17;4.15;;;3.30;;
45198;SDS011;30941;46.422;18.772;2022-07-29T09:52:49;3.75;;;3.00;;
45198;SDS011;30941;46.422;18.772;2022-07-29T09:55:16;4.55;;;3.28;;
45198;SDS011;30941;46.422;18.772;2022-07-29T09:57:42;3.83;;;3.30;;
45198;SDS011;30941;46.422;18.772;2022-07-29T10:00:09;4.45;;;3.55;;
45198;SDS011;30941;46.422;18.772;2022-07-29T10:02:37;4.95;;;3.22;;
45198;SDS011;30941;46.422;18.772;2022-07-29T10:05:06;8.52;;;3.72;;
45198;SDS011;30941;46.422;18.772;2022-07-29T10:10:10;8.15;;;3.25;;
45198;SDS011;30941;46.422;18.772;2022-07-29T10:12:47;3.55;;;2.90;;
45198;SDS011;30941;46.422;18.772;2022-07-29T10:15:20;6.47;;;3.50;;
45198;SDS011;30941;46.422;18.772;2022-07-29T10:17:47;7.65;;;3.90;;
45198;SDS011;30941;46.422;18.772;2022-07-29T10:20:13;6.85;;;3.35;;
45198;SDS011;30941;46.422;18.772;2022-07-29T10:22:40;4.32;;;3.45;;
45198;SDS011;30941;46.422;18.772;2022-07-29T10:25:06;4.78;;;3.60;;
45198;SDS011;30941;46.422;18.772;2022-07-29T10:27:32;6.03;;;3.38;;
45198;SDS011;30941;46.422;18.772;2022-07-29T10:30:00;5.40;;;3.47;;
45198;SDS011;30941;46.422;18.772;2022-07-29T10:41:01;5.55;;;3.30;;
45198;SDS011;30941;46.422;18.772;2022-07-29T10:43:48;4.43;;;3.30;;
45198;SDS011;30941;46.422;18.772;2022-07-29T10:46:14;7.50;;;3.80;;
45198;SDS011;30941;46.422;18.772;2022-07-29T10:57:21;11.48;;;3.40;;
45198;SDS011;30941;46.422;18.772;2022-07-29T11:05:16;5.65;;;3.60;;
45198;SDS011;30941;46.422;18.772;2022-07-29T11:10:39;5.43;;;3.38;;
45198;SDS011;30941;46.422;18.772;2022-07-29T11:13:04;6.57;;;3.40;;
45198;SDS011;30941;46.422;18.772;2022-07-29T11:15:32;5.63;;;3.53;;
45198;SDS011;30941;46.422;18.772;2022-07-29T11:18:19;8.93;;;3.85;;
45198;SDS011;30941;46.422;18.772;2022-07-29T11:20:48;6.00;;;3.78;;
45198;SDS011;30941;46.422;18.772;2022-07-29T11:23:28;6.30;;;3.80;;
45198;SDS011;30941;46.422;18.772;2022-07-29T11:31:34;5.25;;;3.45;;
45198;SDS011;30941;46.422;18.772;2022-07-29T11:34:16;4.55;;;3.70;;
45198;SDS011;30941;46.422;18.772;2022-07-29T11:47:47;5.03;;;3.40;;
45198;SDS011;30941;46.422;18.772;2022-07-29T11:50:15;4.13;;;3.58;;
45198;SDS011;30941;46.422;18.772;2022-07-29T11:52:44;6.68;;;3.97;;
45198;SDS011;30941;46.422;18.772;2022-07-29T11:55:12;4.10;;;3.53;;
45198;SDS011;30941;46.422;18.772;2022-07-29T11:57:47;4.20;;;3.80;;
45198;SDS011;30941;46.422;18.772;2022-07-29T12:02:56;6.70;;;3.60;;
45198;SDS011;30941;46.422;18.772;2022-07-29T12:05:30;7.85;;;3.85;;
45198;SDS011;30941;46.422;18.772;2022-07-29T12:10:52;6.55;;;3.85;;
45198;SDS011;30941;46.422;18.772;2022-07-29T12:13:18;5.30;;;4.20;;
45198;SDS011;30941;46.422;18.772;2022-07-29T12:15:52;4.75;;;4.20;;
45198;SDS011;30941;46.422;18.772;2022-07-29T12:18:22;5.05;;;4.15;;
45198;SDS011;30941;46.422;18.772;2022-07-29T12:20:47;6.55;;;4.38;;
45198;SDS011;30941;46.422;18.772;2022-07-29T12:23:14;8.27;;;4.20;;
45198;SDS011;30941;46.422;18.772;2022-07-29T12:25:41;5.55;;;4.05;;
45198;SDS011;30941;46.422;18.772;2022-07-29T12:28:11;6.70;;;4.45;;
45198;SDS011;30941;46.422;18.772;2022-07-29T12:30:39;6.60;;;4.25;;
45198;SDS011;30941;46.422;18.772;2022-07-29T12:35:58;7.43;;;5.07;;
45198;SDS011;30941;46.422;18.772;2022-07-29T12:38:25;6.35;;;5.72;;
45198;SDS011;30941;46.422;18.772;2022-07-29T12:40:52;7.10;;;4.60;;
45198;SDS011;30941;46.422;18.772;2022-07-29T12:43:19;6.13;;;4.63;;
45198;SDS011;30941;46.422;18.772;2022-07-29T12:45:50;5.78;;;4.78;;
45198;SDS011;30941;46.422;18.772;2022-07-29T12:48:22;7.32;;;4.85;;
45198;SDS011;30941;46.422;18.772;2022-07-29T12:51:04;7.95;;;5.20;;
45198;SDS011;30941;46.422;18.772;2022-07-29T12:53:31;5.13;;;4.63;;
45198;SDS011;30941;46.422;18.772;2022-07-29T12:55:57;8.15;;;5.63;;
45198;SDS011;30941;46.422;18.772;2022-07-29T13:03:45;7.80;;;4.80;;
45198;SDS011;30941;46.422;18.772;2022-07-29T13:09:16;7.35;;;5.05;;
45198;SDS011;30941;46.422;18.772;2022-07-29T13:11:47;7.38;;;4.68;;
45198;SDS011;30941;46.422;18.772;2022-07-29T13:17:04;5.97;;;4.53;;
45198;SDS011;30941;46.422;18.772;2022-07-29T13:19:39;7.68;;;4.53;;
45198;SDS011;30941;46.422;18.772;2022-07-29T13:22:07;6.60;;;4.50;;
45198;SDS011;30941;46.422;18.772;2022-07-29T13:24:33;7.78;;;5.60;;
45198;SDS011;30941;46.422;18.772;2022-07-29T13:27:00;9.52;;;5.28;;
45198;SDS011;30941;46.422;18.772;2022-07-29T13:29:25;6.72;;;4.75;;
45198;SDS011;30941;46.422;18.772;2022-07-29T13:31:51;8.68;;;5.15;;
45198;SDS011;30941;46.422;18.772;2022-07-29T13:34:17;7.50;;;4.97;;
45198;SDS011;30941;46.422;18.772;2022-07-29T13:36:44;6.05;;;4.70;;
45198;SDS011;30941;46.422;18.772;2022-07-29T13:39:10;5.28;;;4.60;;
45198;SDS011;30941;46.422;18.772;2022-07-29T13:41:36;9.95;;;5.10;;
45198;SDS011;30941;46.422;18.772;2022-07-29T13:44:01;10.48;;;4.75;;
45198;SDS011;30941;46.422;18.772;2022-07-29T13:46:27;9.60;;;5.18;;
45198;SDS011;30941;46.422;18.772;2022-07-29T13:48:52;8.93;;;5.20;;
45198;SDS011;30941;46.422;18.772;2022-07-29T13:51:18;7.82;;;4.70;;
45198;SDS011;30941;46.422;18.772;2022-07-29T13:53:43;6.95;;;5.05;;
45198;SDS011;30941;46.422;18.772;2022-07-29T13:56:09;8.55;;;4.88;;
45198;SDS011;30941;46.422;18.772;2022-07-29T13:58:34;9.82;;;5.10;;
45198;SDS011;30941;46.422;18.772;2022-07-29T14:00:59;6.60;;;4.65;;
45198;SDS011;30941;46.422;18.772;2022-07-29T14:03:25;9.13;;;4.55;;
45198;SDS011;30941;46.422;18.772;2022-07-29T14:05:51;5.32;;;4.47;;
45198;SDS011;30941;46.422;18.772;2022-07-29T14:08:16;6.22;;;4.88;;
45198;SDS011;30941;46.422;18.772;2022-07-29T14:10:42;6.97;;;4.70;;
45198;SDS011;30941;46.422;18.772;2022-07-29T14:13:08;7.60;;;5.25;;
45198;SDS011;30941;46.422;18.772;2022-07-29T14:15:33;5.95;;;5.20;;
45198;SDS011;30941;46.422;18.772;2022-07-29T14:17:59;7.55;;;5.13;;
45198;SDS011;30941;46.422;18.772;2022-07-29T14:20:24;7.47;;;5.88;;
45198;SDS011;30941;46.422;18.772;2022-07-29T14:22:50;9.40;;;4.75;;
45198;SDS011;30941;46.422;18.772;2022-07-29T14:25:15;8.65;;;5.80;;
45198;SDS011;30941;46.422;18.772;2022-07-29T14:27:42;6.35;;;4.93;;
45198;SDS011;30941;46.422;18.772;2022-07-29T14:30:08;10.35;;;5.18;;
45198;SDS011;30941;46.422;18.772;2022-07-29T14:32:34;7.35;;;5.28;;
45198;SDS011;30941;46.422;18.772;2022-07-29T14:35:00;6.65;;;5.35;;
45198;SDS011;30941;46.422;18.772;2022-07-29T14:37:25;8.65;;;4.65;;
45198;SDS011;30941;46.422;18.772;2022-07-29T14:39:50;11.13;;;5.93;;
45198;SDS011;30941;46.422;18.772;2022-07-29T14:42:16;6.95;;;5.30;;
45198;SDS011;30941;46.422;18.772;2022-07-29T14:44:41;8.30;;;4.90;;
45198;SDS011;30941;46.422;18.772;2022-07-29T14:47:07;9.65;;;5.60;;
45198;SDS011;30941;46.422;18.772;2022-07-29T14:49:32;6.25;;;4.20;;
45198;SDS011;30941;46.422;18.772;2022-07-29T14:51:58;6.43;;;4.57;;
45198;SDS011;30941;46.422;18.772;2022-07-29T14:54:23;10.68;;;5.10;;
45198;SDS011;30941;46.422;18.772;2022-07-29T14:56:49;8.68;;;4.80;;
45198;SDS011;30941;46.422;18.772;2022-07-29T14:59:15;6.47;;;4.82;;
45198;SDS011;30941;46.422;18.772;2022-07-29T15:01:41;6.03;;;4.95;;
45198;SDS011;30941;46.422;18.772;2022-07-29T15:04:06;10.00;;;4.80;;
45198;SDS011;30941;46.422;18.772;2022-07-29T15:06:32;8.15;;;4.90;;
45198;SDS011;30941;46.422;18.772;2022-07-29T15:08:57;6.97;;;4.85;;
45198;SDS011;30941;46.422;18.772;2022-07-29T15:11:23;9.18;;;5.30;;
45198;SDS011;30941;46.422;18.772;2022-07-29T15:13:48;8.98;;;5.22;;
45198;SDS011;30941;46.422;18.772;2022-07-29T15:16:14;6.22;;;5.25;;
45198;SDS011;30941;46.422;18.772;2022-07-29T15:18:39;5.95;;;4.60;;
45198;SDS011;30941;46.422;18.772;2022-07-29T15:21:05;7.57;;;4.63;;
45198;SDS011;30941;46.422;18.772;2022-07-29T15:23:32;6.75;;;4.65;;
45198;SDS011;30941;46.422;18.772;2022-07-29T15:25:58;8.40;;;5.00;;
45198;SDS011;30941;46.422;18.772;2022-07-29T15:28:23;5.72;;;5.05;;
45198;SDS011;30941;46.422;18.772;2022-07-29T15:30:49;9.05;;;4.93;;
45198;SDS011;30941;46.422;18.772;2022-07-29T15:33:14;6.43;;;5.15;;
45198;SDS011;30941;46.422;18.772;2022-07-29T15:35:40;5.38;;;4.78;;
45198;SDS011;30941;46.422;18.772;2022-07-29T15:38:05;7.10;;;4.85;;
45198;SDS011;30941;46.422;18.772;2022-07-29T15:40:31;9.25;;;5.15;;
45198;SDS011;30941;46.422;18.772;2022-07-29T15:42:56;6.65;;;5.03;;
45198;SDS011;30941;46.422;18.772;2022-07-29T15:45:25;10.43;;;5.05;;
45198;SDS011;30941;46.422;18.772;2022-07-29T15:47:51;5.47;;;4.90;;
45198;SDS011;30941;46.422;18.772;2022-07-29T15:50:16;9.40;;;5.25;;
45198;SDS011;30941;46.422;18.772;2022-07-29T15:52:42;8.77;;;5.10;;